sensor_id;sensor_type;location;lat;lon;timestamp;P1;durP1;ratioP1;P2;durP2;ratioP2
11731;SDS011;5922;53.734;10.258;2023-03-04T00:00:27;9.40;;;3.07;;
11731;SDS011;5922;53.734;10.258;2023-03-04T00:02:54;6.27;;;2.43;;
11731;SDS011;5922;53.734;10.258;2023-03-04T00:05:22;10.00;;;2.50;;
11731;SDS011;5922;53.734;10.258;2023-03-04T00:07:50;9.40;;;2.47;;
11731;SDS011;5922;53.734;10.258;2023-03-04T00:10:18;12.00;;;2.03;;
11731;SDS011;5922;53.734;10.258;2023-03-04T00:12:45;13.47;;;2.73;;
11731;SDS011;5922;53.734;10.258;2023-03-04T00:15:12;13.00;;;2.40;;
11731;SDS011;5922;53.734;10.258;2023-03-04T00:17:39;5.10;;;2.00;;
11731;SDS011;5922;53.734;10.258;2023-03-04T00:20:07;10.83;;;1.93;;
11731;SDS011;5922;53.734;10.258;2023-03-04T00:22:35;8.67;;;2.07;;
11731;SDS011;5922;53.734;10.258;2023-03-04T00:25:04;8.10;;;1.90;;
11731;SDS011;5922;53.734;10.258;2023-03-04T00:27:31;7.57;;;2.10;;
11731;SDS011;5922;53.734;10.258;2023-03-04T00:29:58;9.57;;;1.70;;
11731;SDS011;5922;53.734;10.258;2023-03-04T00:32:26;8.30;;;2.03;;
11731;SDS011;5922;53.734;10.258;2023-03-04T00:34:53;6.50;;;1.63;;
11731;SDS011;5922;53.734;10.258;2023-03-04T00:37:20;10.90;;;1.73;;
11731;SDS011;5922;53.734;10.258;2023-03-04T00:39:47;9.33;;;2.10;;
11731;SDS011;5922;53.734;10.258;2023-03-04T00:42:16;12.23;;;2.80;;
11731;SDS011;5922;53.734;10.258;2023-03-04T00:44:43;8.13;;;1.83;;
11731;SDS011;5922;53.734;10.258;2023-03-04T00:47:10;7.83;;;1.80;;
11731;SDS011;5922;53.734;10.258;2023-03-04T00:49:37;7.60;;;1.63;;
11731;SDS011;5922;53.734;10.258;2023-03-04T00:52:07;4.53;;;1.50;;
11731;SDS011;5922;53.734;10.258;2023-03-04T00:54:35;10.00;;;2.40;;
11731;SDS011;5922;53.734;10.258;2023-03-04T00:57:02;7.30;;;1.67;;
11731;SDS011;5922;53.734;10.258;2023-03-04T00:59:30;8.20;;;2.00;;
11731;SDS011;5922;53.734;10.258;2023-03-04T01:01:58;12.07;;;2.07;;
11731;SDS011;5922;53.734;10.258;2023-03-04T01:04:25;6.73;;;1.93;;
11731;SDS011;5922;53.734;10.258;2023-03-04T01:06:52;5.10;;;1.30;;
11731;SDS011;5922;53.734;10.258;2023-03-04T01:09:20;5.23;;;1.67;;
11731;SDS011;5922;53.734;10.258;2023-03-04T01:11:47;4.70;;;1.50;;
11731;SDS011;5922;53.734;10.258;2023-03-04T01:14:14;11.30;;;2.00;;
11731;SDS011;5922;53.734;10.258;2023-03-04T01:16:43;4.90;;;1.50;;
11731;SDS011;5922;53.734;10.258;2023-03-04T01:19:13;8.47;;;1.97;;
11731;SDS011;5922;53.734;10.258;2023-03-04T01:21:40;6.00;;;1.30;;
11731;SDS011;5922;53.734;10.258;2023-03-04T01:24:08;9.97;;;1.97;;
11731;SDS011;5922;53.734;10.258;2023-03-04T01:26:35;7.43;;;1.83;;
11731;SDS011;5922;53.734;10.258;2023-03-04T01:29:02;7.47;;;1.80;;
11731;SDS011;5922;53.734;10.258;2023-03-04T01:31:29;7.17;;;1.77;;
11731;SDS011;5922;53.734;10.258;2023-03-04T01:33:58;5.87;;;1.87;;
11731;SDS011;5922;53.734;10.258;2023-03-04T01:36:25;7.93;;;1.80;;
11731;SDS011;5922;53.734;10.258;2023-03-04T01:38:53;7.17;;;1.50;;
11731;SDS011;5922;53.734;10.258;2023-03-04T01:41:21;4.57;;;1.93;;
11731;SDS011;5922;53.734;10.258;2023-03-04T01:43:49;6.27;;;2.27;;
11731;SDS011;5922;53.734;10.258;2023-03-04T01:46:16;9.37;;;2.60;;
11731;SDS011;5922;53.734;10.258;2023-03-04T01:48:45;6.57;;;2.33;;
11731;SDS011;5922;53.734;10.258;2023-03-04T01:51:15;7.73;;;1.80;;
11731;SDS011;5922;53.734;10.258;2023-03-04T01:53:43;6.07;;;1.93;;
11731;SDS011;5922;53.734;10.258;2023-03-04T01:56:11;8.47;;;1.80;;
11731;SDS011;5922;53.734;10.258;2023-03-04T01:58:38;7.27;;;1.97;;
11731;SDS011;5922;53.734;10.258;2023-03-04T02:01:05;4.17;;;1.40;;
11731;SDS011;5922;53.734;10.258;2023-03-04T02:03:33;10.20;;;2.03;;
11731;SDS011;5922;53.734;10.258;2023-03-04T02:06:00;5.70;;;1.57;;
11731;SDS011;5922;53.734;10.258;2023-03-04T02:08:29;7.47;;;2.00;;
11731;SDS011;5922;53.734;10.258;2023-03-04T02:10:56;6.50;;;1.87;;
11731;SDS011;5922;53.734;10.258;2023-03-04T02:13:23;6.77;;;1.70;;
11731;SDS011;5922;53.734;10.258;2023-03-04T02:15:51;8.00;;;1.93;;
11731;SDS011;5922;53.734;10.258;2023-03-04T02:18:19;6.63;;;1.80;;
11731;SDS011;5922;53.734;10.258;2023-03-04T02:20:48;5.87;;;1.73;;
11731;SDS011;5922;53.734;10.258;2023-03-04T02:23:19;11.60;;;1.93;;
11731;SDS011;5922;53.734;10.258;2023-03-04T02:25:51;4.90;;;1.80;;
11731;SDS011;5922;53.734;10.258;2023-03-04T02:28:22;7.07;;;2.27;;
11731;SDS011;5922;53.734;10.258;2023-03-04T02:30:49;7.20;;;1.67;;
11731;SDS011;5922;53.734;10.258;2023-03-04T02:33:16;7.57;;;1.70;;
11731;SDS011;5922;53.734;10.258;2023-03-04T02:35:44;7.13;;;2.07;;
11731;SDS011;5922;53.734;10.258;2023-03-04T02:38:12;7.63;;;2.20;;
11731;SDS011;5922;53.734;10.258;2023-03-04T02:40:40;7.27;;;2.20;;
11731;SDS011;5922;53.734;10.258;2023-03-04T02:43:08;13.13;;;2.10;;
11731;SDS011;5922;53.734;10.258;2023-03-04T02:45:39;7.10;;;2.20;;
11731;SDS011;5922;53.734;10.258;2023-03-04T02:48:06;9.57;;;1.93;;
11731;SDS011;5922;53.734;10.258;2023-03-04T02:50:35;6.83;;;1.60;;
11731;SDS011;5922;53.734;10.258;2023-03-04T02:53:03;10.07;;;1.60;;
11731;SDS011;5922;53.734;10.258;2023-03-04T02:55:30;8.57;;;1.70;;
11731;SDS011;5922;53.734;10.258;2023-03-04T02:57:58;7.03;;;2.13;;
11731;SDS011;5922;53.734;10.258;2023-03-04T03:00:26;10.30;;;2.10;;
11731;SDS011;5922;53.734;10.258;2023-03-04T03:02:54;5.03;;;1.57;;
11731;SDS011;5922;53.734;10.258;2023-03-04T03:05:22;5.80;;;1.90;;
11731;SDS011;5922;53.734;10.258;2023-03-04T03:07:50;4.53;;;1.60;;
11731;SDS011;5922;53.734;10.258;2023-03-04T03:10:17;5.20;;;1.47;;
11731;SDS011;5922;53.734;10.258;2023-03-04T03:12:44;14.43;;;6.27;;
11731;SDS011;5922;53.734;10.258;2023-03-04T03:15:11;18.00;;;7.37;;
11731;SDS011;5922;53.734;10.258;2023-03-04T03:17:39;16.50;;;9.40;;
11731;SDS011;5922;53.734;10.258;2023-03-04T03:20:09;20.33;;;11.83;;
11731;SDS011;5922;53.734;10.258;2023-03-04T03:22:36;6.90;;;2.57;;
11731;SDS011;5922;53.734;10.258;2023-03-04T03:25:04;32.87;;;15.40;;
11731;SDS011;5922;53.734;10.258;2023-03-04T03:27:31;30.07;;;14.97;;
11731;SDS011;5922;53.734;10.258;2023-03-04T03:29:58;22.03;;;10.63;;
11731;SDS011;5922;53.734;10.258;2023-03-04T03:32:25;9.00;;;2.40;;
11731;SDS011;5922;53.734;10.258;2023-03-04T03:34:53;10.47;;;3.20;;
11731;SDS011;5922;53.734;10.258;2023-03-04T03:37:21;7.10;;;2.37;;
11731;SDS011;5922;53.734;10.258;2023-03-04T03:39:48;5.73;;;2.70;;
11731;SDS011;5922;53.734;10.258;2023-03-04T03:42:16;26.07;;;23.43;;
11731;SDS011;5922;53.734;10.258;2023-03-04T03:44:43;7.07;;;2.43;;
11731;SDS011;5922;53.734;10.258;2023-03-04T03:47:10;11.93;;;2.27;;
11731;SDS011;5922;53.734;10.258;2023-03-04T03:49:37;9.63;;;1.93;;
11731;SDS011;5922;53.734;10.258;2023-03-04T03:52:04;7.23;;;2.10;;
11731;SDS011;5922;53.734;10.258;2023-03-04T03:54:35;4.90;;;1.67;;
11731;SDS011;5922;53.734;10.258;2023-03-04T03:57:02;8.13;;;1.93;;
11731;SDS011;5922;53.734;10.258;2023-03-04T03:59:29;4.63;;;1.77;;
11731;SDS011;5922;53.734;10.258;2023-03-04T04:01:56;5.13;;;1.53;;
11731;SDS011;5922;53.734;10.258;2023-03-04T04:04:24;7.07;;;1.63;;
11731;SDS011;5922;53.734;10.258;2023-03-04T04:06:51;9.20;;;2.00;;
11731;SDS011;5922;53.734;10.258;2023-03-04T04:09:18;5.50;;;1.57;;
11731;SDS011;5922;53.734;10.258;2023-03-04T04:11:47;4.33;;;1.47;;
11731;SDS011;5922;53.734;10.258;2023-03-04T04:14:14;5.10;;;1.90;;
11731;SDS011;5922;53.734;10.258;2023-03-04T04:16:41;11.33;;;2.17;;
11731;SDS011;5922;53.734;10.258;2023-03-04T04:19:10;8.93;;;1.80;;
11731;SDS011;5922;53.734;10.258;2023-03-04T04:21:40;7.90;;;1.83;;
11731;SDS011;5922;53.734;10.258;2023-03-04T04:24:07;9.53;;;2.20;;
11731;SDS011;5922;53.734;10.258;2023-03-04T04:26:34;5.77;;;1.57;;
11731;SDS011;5922;53.734;10.258;2023-03-04T04:29:03;8.47;;;2.00;;
11731;SDS011;5922;53.734;10.258;2023-03-04T04:31:30;8.47;;;1.90;;
11731;SDS011;5922;53.734;10.258;2023-03-04T04:33:57;7.77;;;2.20;;
11731;SDS011;5922;53.734;10.258;2023-03-04T04:36:25;8.23;;;2.97;;
11731;SDS011;5922;53.734;10.258;2023-03-04T04:38:52;8.17;;;2.43;;
11731;SDS011;5922;53.734;10.258;2023-03-04T04:41:20;10.80;;;2.07;;
11731;SDS011;5922;53.734;10.258;2023-03-04T04:43:48;10.13;;;2.93;;
11731;SDS011;5922;53.734;10.258;2023-03-04T04:46:16;10.43;;;3.43;;
11731;SDS011;5922;53.734;10.258;2023-03-04T04:48:44;7.90;;;2.60;;
11731;SDS011;5922;53.734;10.258;2023-03-04T04:51:11;10.93;;;2.60;;
11731;SDS011;5922;53.734;10.258;2023-03-04T04:53:39;17.83;;;3.83;;
11731;SDS011;5922;53.734;10.258;2023-03-04T04:56:09;7.77;;;3.80;;
11731;SDS011;5922;53.734;10.258;2023-03-04T04:58:37;13.87;;;2.90;;
11731;SDS011;5922;53.734;10.258;2023-03-04T05:01:05;11.73;;;2.80;;
11731;SDS011;5922;53.734;10.258;2023-03-04T05:03:34;9.37;;;3.20;;
11731;SDS011;5922;53.734;10.258;2023-03-04T05:06:02;12.00;;;2.80;;
11731;SDS011;5922;53.734;10.258;2023-03-04T05:08:30;11.47;;;2.77;;
11731;SDS011;5922;53.734;10.258;2023-03-04T05:10:57;12.13;;;2.90;;
11731;SDS011;5922;53.734;10.258;2023-03-04T05:13:24;15.97;;;3.87;;
11731;SDS011;5922;53.734;10.258;2023-03-04T05:15:52;14.20;;;3.30;;
11731;SDS011;5922;53.734;10.258;2023-03-04T05:18:20;14.77;;;3.97;;
11731;SDS011;5922;53.734;10.258;2023-03-04T05:20:50;17.37;;;3.83;;
11731;SDS011;5922;53.734;10.258;2023-03-04T05:23:17;14.83;;;3.10;;
11731;SDS011;5922;53.734;10.258;2023-03-04T05:25:45;16.07;;;3.53;;
11731;SDS011;5922;53.734;10.258;2023-03-04T05:28:12;18.30;;;3.87;;
11731;SDS011;5922;53.734;10.258;2023-03-04T05:30:40;16.43;;;3.27;;
11731;SDS011;5922;53.734;10.258;2023-03-04T05:33:08;20.00;;;4.47;;
11731;SDS011;5922;53.734;10.258;2023-03-04T05:35:35;17.90;;;4.37;;
11731;SDS011;5922;53.734;10.258;2023-03-04T05:38:05;22.53;;;4.23;;
11731;SDS011;5922;53.734;10.258;2023-03-04T05:40:33;18.07;;;4.13;;
11731;SDS011;5922;53.734;10.258;2023-03-04T05:43:00;14.60;;;4.00;;
11731;SDS011;5922;53.734;10.258;2023-03-04T05:45:27;17.60;;;4.20;;
11731;SDS011;5922;53.734;10.258;2023-03-04T05:47:55;15.57;;;3.60;;
11731;SDS011;5922;53.734;10.258;2023-03-04T05:50:22;23.47;;;4.27;;
11731;SDS011;5922;53.734;10.258;2023-03-04T05:52:50;17.77;;;3.83;;
11731;SDS011;5922;53.734;10.258;2023-03-04T05:55:18;17.73;;;4.17;;
11731;SDS011;5922;53.734;10.258;2023-03-04T05:57:46;14.10;;;4.20;;
11731;SDS011;5922;53.734;10.258;2023-03-04T06:00:13;21.10;;;4.77;;
11731;SDS011;5922;53.734;10.258;2023-03-04T06:02:41;15.83;;;4.10;;
11731;SDS011;5922;53.734;10.258;2023-03-04T06:05:08;13.57;;;3.63;;
11731;SDS011;5922;53.734;10.258;2023-03-04T06:07:36;24.93;;;4.70;;
11731;SDS011;5922;53.734;10.258;2023-03-04T06:10:04;16.87;;;3.83;;
11731;SDS011;5922;53.734;10.258;2023-03-04T06:12:33;16.60;;;3.87;;
11731;SDS011;5922;53.734;10.258;2023-03-04T06:15:00;16.23;;;4.10;;
11731;SDS011;5922;53.734;10.258;2023-03-04T06:17:28;22.43;;;3.97;;
11731;SDS011;5922;53.734;10.258;2023-03-04T06:19:55;16.97;;;3.60;;
11731;SDS011;5922;53.734;10.258;2023-03-04T06:22:22;19.30;;;4.00;;
11731;SDS011;5922;53.734;10.258;2023-03-04T06:24:49;15.53;;;3.63;;
11731;SDS011;5922;53.734;10.258;2023-03-04T06:27:16;18.80;;;4.13;;
11731;SDS011;5922;53.734;10.258;2023-03-04T06:29:45;19.87;;;3.80;;
11731;SDS011;5922;53.734;10.258;2023-03-04T06:32:12;18.87;;;3.93;;
11731;SDS011;5922;53.734;10.258;2023-03-04T06:34:39;18.77;;;3.63;;
11731;SDS011;5922;53.734;10.258;2023-03-04T06:37:06;15.53;;;3.60;;
11731;SDS011;5922;53.734;10.258;2023-03-04T06:39:34;19.13;;;3.53;;
11731;SDS011;5922;53.734;10.258;2023-03-04T06:42:01;16.13;;;3.40;;
11731;SDS011;5922;53.734;10.258;2023-03-04T06:44:28;16.97;;;3.47;;
11731;SDS011;5922;53.734;10.258;2023-03-04T06:46:57;13.47;;;3.87;;
11731;SDS011;5922;53.734;10.258;2023-03-04T06:49:24;17.17;;;3.40;;
11731;SDS011;5922;53.734;10.258;2023-03-04T06:51:51;17.07;;;3.60;;
11731;SDS011;5922;53.734;10.258;2023-03-04T06:54:18;14.90;;;3.50;;
11731;SDS011;5922;53.734;10.258;2023-03-04T06:56:46;16.27;;;3.20;;
11731;SDS011;5922;53.734;10.258;2023-03-04T06:59:13;13.57;;;3.20;;
11731;SDS011;5922;53.734;10.258;2023-03-04T07:01:41;17.43;;;3.67;;
11731;SDS011;5922;53.734;10.258;2023-03-04T07:04:10;10.97;;;3.40;;
11731;SDS011;5922;53.734;10.258;2023-03-04T07:06:39;16.27;;;3.03;;
11731;SDS011;5922;53.734;10.258;2023-03-04T07:09:06;11.77;;;2.93;;
11731;SDS011;5922;53.734;10.258;2023-03-04T07:11:34;10.63;;;3.27;;
11731;SDS011;5922;53.734;10.258;2023-03-04T07:14:01;19.40;;;3.67;;
11731;SDS011;5922;53.734;10.258;2023-03-04T07:16:28;12.70;;;3.60;;
11731;SDS011;5922;53.734;10.258;2023-03-04T07:18:55;10.80;;;2.73;;
11731;SDS011;5922;53.734;10.258;2023-03-04T07:21:24;13.57;;;2.47;;
11731;SDS011;5922;53.734;10.258;2023-03-04T07:23:51;13.97;;;3.33;;
11731;SDS011;5922;53.734;10.258;2023-03-04T07:26:18;17.73;;;4.00;;
11731;SDS011;5922;53.734;10.258;2023-03-04T07:28:46;22.13;;;3.63;;
11731;SDS011;5922;53.734;10.258;2023-03-04T07:31:18;17.33;;;3.53;;
11731;SDS011;5922;53.734;10.258;2023-03-04T07:33:46;13.23;;;3.30;;
11731;SDS011;5922;53.734;10.258;2023-03-04T07:36:13;15.90;;;3.53;;
11731;SDS011;5922;53.734;10.258;2023-03-04T07:38:43;10.00;;;3.20;;
11731;SDS011;5922;53.734;10.258;2023-03-04T07:41:11;13.23;;;3.60;;
11731;SDS011;5922;53.734;10.258;2023-03-04T07:43:38;20.33;;;4.23;;
11731;SDS011;5922;53.734;10.258;2023-03-04T07:46:05;17.47;;;3.43;;
11731;SDS011;5922;53.734;10.258;2023-03-04T07:48:32;14.63;;;3.10;;
11731;SDS011;5922;53.734;10.258;2023-03-04T07:51:04;15.03;;;3.50;;
11731;SDS011;5922;53.734;10.258;2023-03-04T07:53:31;14.30;;;3.00;;
11731;SDS011;5922;53.734;10.258;2023-03-04T07:56:00;16.70;;;3.80;;
11731;SDS011;5922;53.734;10.258;2023-03-04T07:58:27;15.43;;;3.63;;
11731;SDS011;5922;53.734;10.258;2023-03-04T08:00:54;18.77;;;3.90;;
11731;SDS011;5922;53.734;10.258;2023-03-04T08:03:21;15.30;;;3.20;;
11731;SDS011;5922;53.734;10.258;2023-03-04T08:05:49;14.53;;;3.70;;
11731;SDS011;5922;53.734;10.258;2023-03-04T08:08:16;17.97;;;3.97;;
11731;SDS011;5922;53.734;10.258;2023-03-04T08:10:43;18.30;;;4.33;;
11731;SDS011;5922;53.734;10.258;2023-03-04T08:13:12;16.63;;;3.63;;
11731;SDS011;5922;53.734;10.258;2023-03-04T08:15:40;18.80;;;3.93;;
11731;SDS011;5922;53.734;10.258;2023-03-04T08:18:07;15.57;;;4.07;;
11731;SDS011;5922;53.734;10.258;2023-03-04T08:20:34;19.63;;;3.47;;
11731;SDS011;5922;53.734;10.258;2023-03-04T08:23:02;15.53;;;3.50;;
11731;SDS011;5922;53.734;10.258;2023-03-04T08:25:29;23.93;;;4.27;;
11731;SDS011;5922;53.734;10.258;2023-03-04T08:27:56;17.83;;;4.30;;
11731;SDS011;5922;53.734;10.258;2023-03-04T08:30:26;20.87;;;4.20;;
11731;SDS011;5922;53.734;10.258;2023-03-04T08:32:53;13.00;;;4.00;;
11731;SDS011;5922;53.734;10.258;2023-03-04T08:35:20;16.37;;;3.83;;
11731;SDS011;5922;53.734;10.258;2023-03-04T08:37:47;18.43;;;3.30;;
11731;SDS011;5922;53.734;10.258;2023-03-04T08:40:14;22.23;;;4.73;;
11731;SDS011;5922;53.734;10.258;2023-03-04T08:42:42;22.87;;;6.93;;
11731;SDS011;5922;53.734;10.258;2023-03-04T08:45:09;35.10;;;16.20;;
11731;SDS011;5922;53.734;10.258;2023-03-04T08:47:38;17.90;;;4.13;;
11731;SDS011;5922;53.734;10.258;2023-03-04T08:50:06;12.70;;;3.63;;
11731;SDS011;5922;53.734;10.258;2023-03-04T08:52:33;14.33;;;4.17;;
11731;SDS011;5922;53.734;10.258;2023-03-04T08:55:00;20.10;;;4.60;;
11731;SDS011;5922;53.734;10.258;2023-03-04T08:57:28;16.87;;;4.23;;
11731;SDS011;5922;53.734;10.258;2023-03-04T08:59:55;14.97;;;3.63;;
11731;SDS011;5922;53.734;10.258;2023-03-04T09:02:22;17.30;;;4.10;;
11731;SDS011;5922;53.734;10.258;2023-03-04T09:04:51;18.40;;;3.90;;
11731;SDS011;5922;53.734;10.258;2023-03-04T09:07:18;19.43;;;4.10;;
11731;SDS011;5922;53.734;10.258;2023-03-04T09:09:45;18.13;;;3.40;;
11731;SDS011;5922;53.734;10.258;2023-03-04T09:12:12;15.30;;;3.50;;
11731;SDS011;5922;53.734;10.258;2023-03-04T09:14:40;14.57;;;3.60;;
11731;SDS011;5922;53.734;10.258;2023-03-04T09:17:07;15.70;;;4.00;;
11731;SDS011;5922;53.734;10.258;2023-03-04T09:19:34;25.37;;;4.00;;
11731;SDS011;5922;53.734;10.258;2023-03-04T09:22:04;15.47;;;3.50;;
11731;SDS011;5922;53.734;10.258;2023-03-04T09:24:31;16.93;;;3.80;;
11731;SDS011;5922;53.734;10.258;2023-03-04T09:26:58;15.03;;;3.83;;
11731;SDS011;5922;53.734;10.258;2023-03-04T09:29:25;23.63;;;3.67;;
11731;SDS011;5922;53.734;10.258;2023-03-04T09:31:53;16.53;;;4.00;;
11731;SDS011;5922;53.734;10.258;2023-03-04T09:34:20;17.10;;;3.53;;
11731;SDS011;5922;53.734;10.258;2023-03-04T09:36:47;16.63;;;3.60;;
11731;SDS011;5922;53.734;10.258;2023-03-04T09:39:16;12.47;;;4.13;;
11731;SDS011;5922;53.734;10.258;2023-03-04T09:41:44;16.03;;;5.17;;
11731;SDS011;5922;53.734;10.258;2023-03-04T09:44:19;31.60;;;13.40;;
11731;SDS011;5922;53.734;10.258;2023-03-04T09:46:48;32.07;;;14.63;;
11731;SDS011;5922;53.734;10.258;2023-03-04T09:49:18;19.80;;;4.37;;
11731;SDS011;5922;53.734;10.258;2023-03-04T09:51:54;15.57;;;3.80;;
11731;SDS011;5922;53.734;10.258;2023-03-04T09:54:28;15.27;;;4.87;;
11731;SDS011;5922;53.734;10.258;2023-03-04T09:57:03;23.97;;;9.10;;
11731;SDS011;5922;53.734;10.258;2023-03-04T09:59:34;20.60;;;4.93;;
11731;SDS011;5922;53.734;10.258;2023-03-04T10:02:12;18.37;;;5.23;;
11731;SDS011;5922;53.734;10.258;2023-03-04T10:04:43;19.77;;;5.07;;
11731;SDS011;5922;53.734;10.258;2023-03-04T10:07:14;13.57;;;4.63;;
11731;SDS011;5922;53.734;10.258;2023-03-04T10:09:45;23.47;;;7.17;;
11731;SDS011;5922;53.734;10.258;2023-03-04T10:12:14;17.57;;;5.03;;
11731;SDS011;5922;53.734;10.258;2023-03-04T10:14:42;17.13;;;6.13;;
11731;SDS011;5922;53.734;10.258;2023-03-04T10:17:12;23.37;;;5.93;;
11731;SDS011;5922;53.734;10.258;2023-03-04T10:22:30;15.30;;;3.83;;
11731;SDS011;5922;53.734;10.258;2023-03-04T10:25:00;21.37;;;4.90;;
11731;SDS011;5922;53.734;10.258;2023-03-04T10:27:31;16.63;;;4.30;;
11731;SDS011;5922;53.734;10.258;2023-03-04T10:29:58;15.87;;;4.43;;
11731;SDS011;5922;53.734;10.258;2023-03-04T10:32:26;19.97;;;4.40;;
11731;SDS011;5922;53.734;10.258;2023-03-04T10:34:53;19.10;;;4.13;;
11731;SDS011;5922;53.734;10.258;2023-03-04T10:37:20;16.97;;;4.00;;
11731;SDS011;5922;53.734;10.258;2023-03-04T10:39:48;16.37;;;4.47;;
11731;SDS011;5922;53.734;10.258;2023-03-04T10:42:26;18.30;;;4.70;;
11731;SDS011;5922;53.734;10.258;2023-03-04T10:44:54;19.47;;;4.23;;
11731;SDS011;5922;53.734;10.258;2023-03-04T10:47:28;21.77;;;4.57;;
11731;SDS011;5922;53.734;10.258;2023-03-04T10:50:25;16.77;;;4.87;;
11731;SDS011;5922;53.734;10.258;2023-03-04T10:53:02;17.97;;;5.00;;
11731;SDS011;5922;53.734;10.258;2023-03-04T10:58:21;16.53;;;4.50;;
11731;SDS011;5922;53.734;10.258;2023-03-04T11:03:39;12.37;;;3.90;;
11731;SDS011;5922;53.734;10.258;2023-03-04T11:06:16;14.83;;;3.73;;
11731;SDS011;5922;53.734;10.258;2023-03-04T11:08:50;11.20;;;4.07;;
11731;SDS011;5922;53.734;10.258;2023-03-04T11:11:23;23.30;;;4.50;;
11731;SDS011;5922;53.734;10.258;2023-03-04T11:17:08;15.10;;;4.57;;
11731;SDS011;5922;53.734;10.258;2023-03-04T11:19:49;15.40;;;4.57;;
11731;SDS011;5922;53.734;10.258;2023-03-04T11:22:19;17.47;;;4.73;;
11731;SDS011;5922;53.734;10.258;2023-03-04T11:27:36;13.53;;;4.20;;
11731;SDS011;5922;53.734;10.258;2023-03-04T11:33:24;15.23;;;4.00;;
11731;SDS011;5922;53.734;10.258;2023-03-04T11:35:56;19.00;;;5.10;;
11731;SDS011;5922;53.734;10.258;2023-03-04T11:38:26;15.80;;;4.57;;
11731;SDS011;5922;53.734;10.258;2023-03-04T11:40:58;15.33;;;4.30;;
11731;SDS011;5922;53.734;10.258;2023-03-04T11:43:27;21.27;;;4.60;;
11731;SDS011;5922;53.734;10.258;2023-03-04T11:58:07;11.20;;;4.23;;
11731;SDS011;5922;53.734;10.258;2023-03-04T12:00:41;15.40;;;3.90;;
11731;SDS011;5922;53.734;10.258;2023-03-04T12:06:16;13.33;;;3.93;;
11731;SDS011;5922;53.734;10.258;2023-03-04T12:08:51;18.30;;;3.97;;
11731;SDS011;5922;53.734;10.258;2023-03-04T12:14:24;10.43;;;3.03;;
11731;SDS011;5922;53.734;10.258;2023-03-04T12:19:47;14.23;;;3.70;;
11731;SDS011;5922;53.734;10.258;2023-03-04T12:22:24;14.30;;;3.60;;
11731;SDS011;5922;53.734;10.258;2023-03-04T12:27:38;11.40;;;3.73;;
11731;SDS011;5922;53.734;10.258;2023-03-04T12:30:15;16.80;;;3.73;;
11731;SDS011;5922;53.734;10.258;2023-03-04T12:32:46;11.10;;;3.50;;
11731;SDS011;5922;53.734;10.258;2023-03-04T12:35:23;13.17;;;3.57;;
11731;SDS011;5922;53.734;10.258;2023-03-04T12:37:56;16.50;;;4.30;;
11731;SDS011;5922;53.734;10.258;2023-03-04T12:40:29;14.37;;;3.37;;
11731;SDS011;5922;53.734;10.258;2023-03-04T12:46:01;10.33;;;3.07;;
11731;SDS011;5922;53.734;10.258;2023-03-04T12:48:33;10.33;;;3.33;;
11731;SDS011;5922;53.734;10.258;2023-03-04T12:51:08;8.77;;;3.40;;
11731;SDS011;5922;53.734;10.258;2023-03-04T12:56:44;11.70;;;3.53;;
11731;SDS011;5922;53.734;10.258;2023-03-04T12:59:21;14.10;;;3.63;;
11731;SDS011;5922;53.734;10.258;2023-03-04T13:01:52;10.33;;;3.27;;
11731;SDS011;5922;53.734;10.258;2023-03-04T13:04:25;13.17;;;3.53;;
11731;SDS011;5922;53.734;10.258;2023-03-04T13:06:57;13.10;;;3.80;;
11731;SDS011;5922;53.734;10.258;2023-03-04T13:09:33;17.23;;;3.47;;
11731;SDS011;5922;53.734;10.258;2023-03-04T13:12:10;12.80;;;3.50;;
11731;SDS011;5922;53.734;10.258;2023-03-04T13:14:40;11.73;;;3.50;;
11731;SDS011;5922;53.734;10.258;2023-03-04T13:23:25;16.17;;;4.07;;
11731;SDS011;5922;53.734;10.258;2023-03-04T13:32:02;8.47;;;3.33;;
11731;SDS011;5922;53.734;10.258;2023-03-04T13:34:48;11.13;;;3.50;;
11731;SDS011;5922;53.734;10.258;2023-03-04T13:37:35;13.47;;;3.30;;
11731;SDS011;5922;53.734;10.258;2023-03-04T14:00:42;14.13;;;3.63;;
11731;SDS011;5922;53.734;10.258;2023-03-04T14:03:13;12.43;;;3.40;;
11731;SDS011;5922;53.734;10.258;2023-03-04T14:05:48;11.63;;;3.60;;
11731;SDS011;5922;53.734;10.258;2023-03-04T14:08:42;14.00;;;3.70;;
11731;SDS011;5922;53.734;10.258;2023-03-04T14:11:30;13.27;;;3.80;;
11731;SDS011;5922;53.734;10.258;2023-03-04T14:14:03;11.63;;;3.33;;
11731;SDS011;5922;53.734;10.258;2023-03-04T14:16:34;11.67;;;3.27;;
11731;SDS011;5922;53.734;10.258;2023-03-04T14:19:20;11.10;;;3.40;;
11731;SDS011;5922;53.734;10.258;2023-03-04T14:21:48;20.37;;;8.50;;
11731;SDS011;5922;53.734;10.258;2023-03-04T14:24:17;19.90;;;9.30;;
11731;SDS011;5922;53.734;10.258;2023-03-04T14:33:06;13.67;;;4.23;;
11731;SDS011;5922;53.734;10.258;2023-03-04T14:35:52;11.90;;;3.30;;
11731;SDS011;5922;53.734;10.258;2023-03-04T14:38:22;10.23;;;3.53;;
11731;SDS011;5922;53.734;10.258;2023-03-04T14:40:50;12.80;;;3.03;;
11731;SDS011;5922;53.734;10.258;2023-03-04T14:43:19;12.80;;;3.77;;
11731;SDS011;5922;53.734;10.258;2023-03-04T14:45:47;14.90;;;3.60;;
11731;SDS011;5922;53.734;10.258;2023-03-04T14:48:18;14.60;;;3.43;;
11731;SDS011;5922;53.734;10.258;2023-03-04T14:50:49;10.13;;;2.90;;
11731;SDS011;5922;53.734;10.258;2023-03-04T14:53:17;10.23;;;3.07;;
11731;SDS011;5922;53.734;10.258;2023-03-04T14:59:10;17.47;;;4.07;;
11731;SDS011;5922;53.734;10.258;2023-03-04T15:01:55;13.70;;;3.63;;
11731;SDS011;5922;53.734;10.258;2023-03-04T15:04:35;13.97;;;3.20;;
11731;SDS011;5922;53.734;10.258;2023-03-04T15:07:11;11.07;;;3.60;;
11731;SDS011;5922;53.734;10.258;2023-03-04T15:09:40;8.50;;;3.50;;
11731;SDS011;5922;53.734;10.258;2023-03-04T15:12:08;9.07;;;3.60;;
11731;SDS011;5922;53.734;10.258;2023-03-04T15:14:41;13.37;;;3.13;;
11731;SDS011;5922;53.734;10.258;2023-03-04T15:17:21;9.87;;;3.00;;
11731;SDS011;5922;53.734;10.258;2023-03-04T15:20:01;14.17;;;3.93;;
11731;SDS011;5922;53.734;10.258;2023-03-04T15:25:31;11.87;;;2.93;;
11731;SDS011;5922;53.734;10.258;2023-03-04T15:28:05;15.23;;;4.03;;
11731;SDS011;5922;53.734;10.258;2023-03-04T15:30:46;12.10;;;3.23;;
11731;SDS011;5922;53.734;10.258;2023-03-04T15:33:27;12.57;;;3.77;;
11731;SDS011;5922;53.734;10.258;2023-03-04T15:36:12;12.23;;;3.83;;
11731;SDS011;5922;53.734;10.258;2023-03-04T15:38:51;11.83;;;3.77;;
11731;SDS011;5922;53.734;10.258;2023-03-04T15:47:13;9.43;;;3.13;;
11731;SDS011;5922;53.734;10.258;2023-03-04T15:49:44;15.50;;;4.73;;
11731;SDS011;5922;53.734;10.258;2023-03-04T15:58:27;12.73;;;3.73;;
11731;SDS011;5922;53.734;10.258;2023-03-04T16:01:12;14.83;;;4.30;;
11731;SDS011;5922;53.734;10.258;2023-03-04T16:03:48;13.10;;;3.80;;
11731;SDS011;5922;53.734;10.258;2023-03-04T16:06:19;15.53;;;6.87;;
11731;SDS011;5922;53.734;10.258;2023-03-04T16:12:00;25.77;;;4.27;;
11731;SDS011;5922;53.734;10.258;2023-03-04T16:14:38;10.13;;;3.43;;
11731;SDS011;5922;53.734;10.258;2023-03-04T16:19:57;15.27;;;3.43;;
11731;SDS011;5922;53.734;10.258;2023-03-04T16:22:32;14.07;;;3.00;;
11731;SDS011;5922;53.734;10.258;2023-03-04T16:25:00;11.13;;;3.43;;
11731;SDS011;5922;53.734;10.258;2023-03-04T16:27:27;12.33;;;3.07;;
11731;SDS011;5922;53.734;10.258;2023-03-04T16:29:56;9.13;;;3.00;;
11731;SDS011;5922;53.734;10.258;2023-03-04T16:32:23;12.03;;;3.27;;
11731;SDS011;5922;53.734;10.258;2023-03-04T16:34:50;10.70;;;2.43;;
11731;SDS011;5922;53.734;10.258;2023-03-04T16:37:17;9.03;;;2.80;;
11731;SDS011;5922;53.734;10.258;2023-03-04T16:39:46;12.70;;;3.23;;
11731;SDS011;5922;53.734;10.258;2023-03-04T16:42:14;10.70;;;3.33;;